Time;durP1;ratioP1;P1;durP2;ratioP2;P2;SDS_P1;SDS_P2;PMS_P1;PMS_P2;Temp;Humidity;BMP_temperature;BMP_pressure;BME280_temperature;BME280_humidity;BME280_pressure;Samples;Min_cycle;Max_cycle;Signal;HPM_P1;HPM_P2
2022/06/16 00:00:21;;;;;;;4.10;3.70;;;;;;;24.54;44.06;93972.72;5061816;28;20208;-67
2022/06/16 00:03:08;;;;;;;4.30;3.90;;;;;;;24.43;45.63;93976.78;5055336;28;20275;-68
2022/06/16 00:05:52;;;;;;;9.40;4.70;;;;;;;24.50;44.87;93984.06;5059422;28;20216;-69
2022/06/16 00:08:36;;;;;;;7.73;4.70;;;;;;;24.48;44.86;93977.59;5046859;28;20233;-68
2022/06/16 00:11:20;;;;;;;6.50;4.60;;;;;;;24.59;44.05;93979.25;5057096;28;20209;-68
2022/06/16 00:14:04;;;;;;;5.10;4.30;;;;;;;24.42;45.31;93977.47;5050287;28;20260;-68
2022/06/16 00:16:49;;;;;;;5.57;4.40;;;;;;;24.67;44.74;93987.28;5053641;28;20240;-68
2022/06/16 00:19:33;;;;;;;5.30;4.27;;;;;;;24.65;45.37;93987.97;5059552;28;20664;-68
2022/06/16 00:22:18;;;;;;;5.87;4.20;;;;;;;24.62;45.46;93991.47;5049509;28;20193;-68
2022/06/16 00:25:03;;;;;;;5.80;4.30;;;;;;;24.38;45.12;93989.56;5052638;28;20689;-68
2022/06/16 00:27:48;;;;;;;4.07;3.73;;;;;;;24.43;45.15;93996.84;5060316;28;20277;-69
2022/06/16 00:30:31;;;;;;;7.40;3.87;;;;;;;24.36;45.25;93992.41;5054185;28;20980;-68
2022/06/16 00:33:16;;;;;;;4.70;3.53;;;;;;;24.17;46.14;93993.41;5062308;28;20205;-68
2022/06/16 00:36:00;;;;;;;4.77;4.13;;;;;;;24.07;46.78;93990.31;5056765;28;20259;-68
2022/06/16 00:38:44;;;;;;;10.33;4.73;;;;;;;23.93;48.03;93987.13;5065397;28;20252;-68
2022/06/16 00:41:28;;;;;;;6.97;4.80;;;;;;;24.20;46.63;93997.78;5055232;28;20683;-68
2022/06/16 00:44:17;;;;;;;4.77;4.30;;;;;;;24.15;46.23;94001.94;5051492;28;20326;-68
2022/06/16 00:47:01;;;;;;;7.00;4.70;;;;;;;24.13;46.25;94001.91;5055576;28;20204;-68
2022/06/16 00:49:46;;;;;;;9.03;4.70;;;;;;;24.17;46.90;93999.84;5052520;28;20249;-68
2022/06/16 00:52:32;;;;;;;5.10;4.00;;;;;;;24.10;46.83;93988.94;5049354;28;20204;-68
2022/06/16 00:55:17;;;;;;;4.90;4.40;;;;;;;23.94;46.84;93991.47;5051326;28;20693;-68
2022/06/16 00:58:02;;;;;;;6.43;4.63;;;;;;;24.16;46.24;93992.66;5049604;28;20197;-67
2022/06/16 01:00:46;;;;;;;5.07;4.07;;;;;;;23.46;49.74;93986.03;5052892;28;20213;-68
2022/06/16 01:06:33;;;;;;;5.37;4.43;;;;;;;24.01;47.19;93987.34;5052751;28;20208;-67
2022/06/16 01:09:22;;;;;;;7.20;4.80;;;;;;;24.03;47.00;93976.63;5055601;28;20220;-68
2022/06/16 01:15:49;;;;;;;6.03;5.53;;;;;;;23.94;47.02;93982.88;5053989;28;20255;-68
2022/06/16 01:18:51;;;;;;;5.90;4.20;;;;;;;23.82;47.81;93985.47;5053528;28;20209;-68
2022/06/16 01:21:50;;;;;;;6.77;4.80;;;;;;;23.96;47.56;93980.03;5052050;28;20247;-67
2022/06/16 01:24:50;;;;;;;10.50;5.43;;;;;;;23.86;47.19;93979.81;5050582;28;20276;-67
2022/06/16 01:27:53;;;;;;;5.70;5.20;;;;;;;23.62;48.73;93977.88;5052793;28;20229;-68
2022/06/16 01:30:48;;;;;;;7.03;4.67;;;;;;;23.60;48.51;93986.41;5043381;28;20842;-67
2022/06/16 01:34:04;;;;;;;10.63;5.20;;;;;;;23.58;48.12;93989.19;5055008;28;20623;-68
2022/06/16 01:36:58;;;;;;;7.50;5.50;;;;;;;23.69;47.26;93985.19;5047885;28;20255;-67
2022/06/16 01:39:56;;;;;;;7.00;5.20;;;;;;;23.60;47.81;93983.53;5056124;28;20205;-67
2022/06/16 01:42:57;;;;;;;6.03;5.33;;;;;;;23.58;47.86;93977.75;5044764;28;20209;-67
2022/06/16 01:45:47;;;;;;;9.07;5.40;;;;;;;23.47;48.18;93978.94;5049556;28;20209;-68
2022/06/16 01:48:36;;;;;;;8.30;5.47;;;;;;;23.51;47.92;93975.44;5053838;28;20233;-68
2022/06/16 01:51:49;;;;;;;9.23;5.90;;;;;;;23.48;48.36;93974.66;5053266;28;20203;-68
2022/06/16 01:54:38;;;;;;;9.90;5.60;;;;;;;23.43;48.36;93973.09;5060156;28;20567;-67
2022/06/16 01:57:36;;;;;;;6.43;5.23;;;;;;;23.40;48.16;93968.72;5043890;28;20758;-67
2022/06/16 02:00:24;;;;;;;7.13;5.40;;;;;;;23.34;48.01;93962.84;5056487;28;20212;-67
2022/06/16 02:03:25;;;;;;;9.30;4.90;;;;;;;23.24;49.08;93974.06;5061057;28;20320;-67
2022/06/16 02:06:12;;;;;;;7.23;5.43;;;;;;;23.15;49.20;93961.69;5062963;28;20513;-67
2022/06/16 02:09:08;;;;;;;6.83;4.80;;;;;;;23.04;48.88;93964.97;5051889;28;20279;-67
2022/06/16 02:11:58;;;;;;;6.73;5.40;;;;;;;22.83;49.60;93964.47;5050286;28;20572;-67
2022/06/16 02:14:51;;;;;;;9.63;5.10;;;;;;;23.06;49.20;93962.16;5057484;28;20575;-67
2022/06/16 02:17:43;;;;;;;7.90;5.73;;;;;;;22.92;49.76;93951.81;5060456;28;20228;-67
2022/06/16 02:20:35;;;;;;;7.93;5.27;;;;;;;22.92;49.27;93957.53;5048750;28;20232;-67
2022/06/16 02:23:20;;;;;;;7.70;5.37;;;;;;;22.91;49.74;93953.22;5046682;28;20213;-67
2022/06/16 02:26:04;;;;;;;11.30;5.97;;;;;;;23.01;49.14;93957.75;5055088;28;20681;-67
2022/06/16 02:28:52;;;;;;;8.30;5.77;;;;;;;23.11;48.88;93960.84;5053957;28;20283;-67
2022/06/16 02:32:25;;;;;;;7.70;6.60;;;;;;;23.08;48.96;93959.38;5040626;28;20206;-67
2022/06/16 02:35:16;;;;;;;11.83;6.40;;;;;;;22.95;49.53;93967.63;5052354;28;20204;-67
2022/06/16 02:38:06;;;;;;;12.50;6.37;;;;;;;22.77;49.62;93963.56;5058731;28;20193;-67
2022/06/16 02:41:16;;;;;;;11.23;5.53;;;;;;;22.77;50.16;93975.72;5060148;28;20203;-67
2022/06/16 02:44:04;;;;;;;7.70;5.30;;;;;;;22.86;49.00;93960.25;5048594;28;20204;-68
2022/06/16 02:47:00;;;;;;;6.93;5.13;;;;;;;22.70;49.29;93956.94;5060172;28;20219;-67
2022/06/16 02:50:02;;;;;;;8.27;5.37;;;;;;;22.65;49.46;93946.78;5056441;28;20629;-67
2022/06/16 02:53:07;;;;;;;8.60;5.27;;;;;;;22.64;49.15;93945.34;5052651;28;20255;-67
2022/06/16 02:55:58;;;;;;;7.70;5.40;;;;;;;22.65;50.35;93946.78;5050649;28;20733;-67
2022/06/16 02:58:44;;;;;;;6.37;5.40;;;;;;;22.63;49.60;93949.59;5060143;28;20267;-67
2022/06/16 03:01:31;;;;;;;9.20;5.33;;;;;;;22.35;50.40;93943.84;5061145;28;20216;-67
2022/06/16 03:04:17;;;;;;;7.27;6.07;;;;;;;22.50;49.88;93942.84;5057361;28;20233;-67
2022/06/16 03:07:03;;;;;;;16.70;5.97;;;;;;;22.51;49.83;93937.88;5055390;28;20197;-67
2022/06/16 03:09:49;;;;;;;10.17;5.40;;;;;;;22.46;50.04;93933.44;5052538;28;20217;-69
2022/06/16 03:12:34;;;;;;;9.37;5.97;;;;;;;22.41;50.12;93935.44;5058248;28;20614;-67
2022/06/16 03:15:18;;;;;;;8.33;5.83;;;;;;;22.44;50.14;93933.38;5057945;28;20687;-70
2022/06/16 03:18:03;;;;;;;7.93;6.10;;;;;;;22.30;50.24;93933.00;5059580;28;20201;-69
2022/06/16 03:20:48;;;;;;;9.40;5.43;;;;;;;22.36;49.88;93922.47;5059380;28;20236;-69
2022/06/16 03:23:32;;;;;;;8.47;5.40;;;;;;;22.36;50.22;93933.16;5056063;28;20204;-67
2022/06/16 03:26:17;;;;;;;9.73;5.63;;;;;;;22.40;49.96;93933.28;5052760;28;20213;-67
2022/06/16 03:29:02;;;;;;;11.07;5.87;;;;;;;22.59;49.29;93938.06;5058167;28;20721;-67
2022/06/16 03:31:47;;;;;;;6.60;5.33;;;;;;;22.49;49.41;93940.66;5055300;28;20224;-67
2022/06/16 03:34:32;;;;;;;14.33;5.97;;;;;;;22.43;49.95;93937.63;5059762;28;20213;-67
2022/06/16 03:37:19;;;;;;;7.93;5.70;;;;;;;22.47;49.77;93943.44;5054134;28;20213;-67
2022/06/16 03:40:13;;;;;;;9.53;5.10;;;;;;;22.46;50.17;93947.72;5082751;28;20281;-67
2022/06/16 03:42:58;;;;;;;5.57;4.43;;;;;;;22.53;49.79;93946.47;5050361;28;20646;-67
2022/06/16 03:45:46;;;;;;;7.53;5.07;;;;;;;22.68;49.37;93945.44;5051078;28;20225;-67
2022/06/16 03:48:33;;;;;;;10.43;5.27;;;;;;;22.51;49.45;93949.28;5059790;28;20657;-67
2022/06/16 03:51:18;;;;;;;6.47;5.00;;;;;;;22.28;50.32;93955.78;5059272;28;20264;-67
2022/06/16 03:54:03;;;;;;;13.73;5.70;;;;;;;22.36;50.67;93950.28;5050303;28;20226;-67
2022/06/16 03:56:48;;;;;;;9.33;4.90;;;;;;;22.70;49.66;93954.09;5051535;28;20205;-67
2022/06/16 03:59:35;;;;;;;10.40;5.30;;;;;;;22.79;49.06;93955.03;5055151;28;20209;-67
2022/06/16 04:02:31;;;;;;;6.10;4.70;;;;;;;22.92;49.24;93954.69;5050076;28;20217;-67
2022/06/16 04:05:18;;;;;;;6.57;4.93;;;;;;;22.95;48.54;93953.34;5057947;28;20202;-67
2022/06/16 04:08:10;;;;;;;14.43;5.43;;;;;;;22.86;49.87;93960.25;5057681;28;20217;-67
2022/06/16 04:10:56;;;;;;;9.73;4.90;;;;;;;23.03;48.81;93952.06;5054024;28;20255;-67
2022/06/16 04:13:40;;;;;;;10.80;5.43;;;;;;;22.80;50.28;93962.22;5049964;28;20564;-67
2022/06/16 04:16:24;;;;;;;9.47;4.80;;;;;;;23.24;48.59;93951.19;5053083;28;20248;-67
2022/06/16 04:19:13;;;;;;;10.17;4.67;;;;;;;23.44;48.57;93954.53;5060622;28;20228;-67
2022/06/16 04:21:57;;;;;;;13.63;4.90;;;;;;;23.57;48.12;93953.44;5050278;28;20247;-67
2022/06/16 04:24:52;;;;;;;7.40;4.50;;;;;;;23.73;47.68;93953.81;5034528;28;20193;-68
2022/06/16 04:27:38;;;;;;;5.47;4.13;;;;;;;23.71;48.05;93950.16;5018668;28;1101606;-66
2022/06/16 04:30:24;;;;;;;6.73;4.73;;;;;;;23.97;47.66;93952.88;5039127;28;20278;-67
2022/06/16 04:33:09;;;;;;;10.40;4.27;;;;;;;24.13;47.10;93953.22;5046018;28;20268;-66
2022/06/16 04:35:54;;;;;;;11.13;4.83;;;;;;;24.40;46.63;93945.91;5054359;28;20244;-69
2022/06/16 04:38:42;;;;;;;7.90;4.60;;;;;;;24.39;46.90;93945.19;5059400;28;20232;-69
2022/06/16 04:41:26;;;;;;;8.60;3.97;;;;;;;24.46;47.13;93949.63;5051452;28;20236;-69
2022/06/16 04:44:10;;;;;;;5.33;3.37;;;;;;;24.45;47.18;93956.75;5048998;28;20279;-70
2022/06/16 04:46:56;;;;;;;7.60;4.20;;;;;;;24.64;47.22;93957.13;5057989;28;20581;-69
2022/06/16 04:49:48;;;;;;;6.97;4.20;;;;;;;24.81;46.78;93953.16;5057000;28;20209;-69
2022/06/16 04:52:33;;;;;;;7.67;4.20;;;;;;;25.19;46.15;93962.44;5053033;28;20193;-69
2022/06/16 04:55:17;;;;;;;4.33;3.50;;;;;;;25.21;46.19;93968.22;5060187;28;20204;-69
2022/06/16 04:58:31;;;;;;;5.93;3.37;;;;;;;25.43;46.32;93961.44;5053449;28;20719;-69
2022/06/16 05:01:38;;;;;;;4.70;3.43;;;;;;;25.60;46.40;93957.41;5046947;28;20196;-69
2022/06/16 05:04:45;;;;;;;7.03;3.60;;;;;;;25.83;46.00;93956.31;5043938;28;20205;-69
2022/06/16 05:07:45;;;;;;;7.43;3.97;;;;;;;26.45;44.69;93965.09;5056983;28;20600;-69
2022/06/16 05:10:47;;;;;;;7.70;3.83;;;;;;;26.81;44.42;93969.78;5053652;28;20228;-70
2022/06/16 05:13:51;;;;;;;10.37;3.93;;;;;;;27.20;44.25;93968.06;5048408;28;20197;-70
2022/06/16 05:16:47;;;;;;;6.33;3.40;;;;;;;27.75;43.29;93977.91;5040240;28;20205;-70
2022/06/16 05:19:50;;;;;;;6.80;3.17;;;;;;;28.10;43.11;93978.88;5056120;28;20201;-69
2022/06/16 05:22:41;;;;;;;6.50;2.87;;;;;;;28.62;42.74;93983.50;5049983;28;20231;-71
2022/06/16 05:25:49;;;;;;;7.67;2.83;;;;;;;28.75;40.10;93982.13;5054327;28;20271;-70
2022/06/16 05:28:56;;;;;;;7.07;3.00;;;;;;;28.83;39.93;93993.69;5053855;28;20229;-70
2022/06/16 05:32:00;;;;;;;7.00;2.67;;;;;;;28.99;39.14;94005.28;5037019;28;20776;-70
2022/06/16 05:35:00;;;;;;;5.97;2.70;;;;;;;29.24;36.42;94006.81;5046117;28;20237;-70
2022/06/16 05:38:05;;;;;;;7.23;2.67;;;;;;;29.05;35.67;94008.19;5051878;28;20264;-70
2022/06/16 05:41:19;;;;;;;7.50;2.67;;;;;;;29.54;34.93;94014.09;5052744;28;20247;-71
2022/06/16 05:44:36;;;;;;;8.67;2.70;;;;;;;29.82;33.96;94014.09;5048194;28;20213;-70
2022/06/16 05:47:31;;;;;;;5.40;2.80;;;;;;;29.54;33.12;94008.31;5054365;28;20220;-71
2022/06/16 05:50:18;;;;;;;5.67;2.80;;;;;;;29.57;33.21;94012.63;5053652;28;20201;-70
2022/06/16 05:53:02;;;;;;;7.63;3.20;;;;;;;29.98;33.60;94014.13;5054520;28;20242;-71
2022/06/16 05:55:59;;;;;;;10.43;2.93;;;;;;;30.06;33.82;94019.91;5047314;28;20739;-71
2022/06/16 05:58:48;;;;;;;6.88;2.60;;;;;;;30.79;33.71;94019.06;5047735;28;20237;-71
2022/06/16 06:01:33;;;;;;;6.68;2.45;;;;;;;31.31;33.15;94018.81;5056479;28;20558;-71
2022/06/16 06:04:25;;;;;;;6.50;3.17;;;;;;;31.42;31.55;94016.59;5057947;28;20221;-71
2022/06/16 06:07:10;;;;;;;5.03;2.55;;;;;;;31.06;32.00;94020.41;5057403;28;20219;-71
2022/06/16 06:16:25;;;;;;;5.03;2.35;;;;;;;32.07;30.77;94033.53;5055342;28;20269;-71
2022/06/16 06:19:24;;;;;;;4.82;2.60;;;;;;;31.57;30.49;94034.59;5054321;28;20719;-71
2022/06/16 06:22:14;;;;;;;7.22;2.97;;;;;;;31.57;30.73;94031.72;5047384;28;20566;-71
2022/06/16 06:25:00;;;;;;;9.02;2.97;;;;;;;31.72;30.91;94030.88;5046692;28;20309;-71
2022/06/16 06:27:46;;;;;;;6.10;2.42;;;;;;;31.58;31.56;94030.25;5053511;28;20220;-71
2022/06/16 06:30:34;;;;;;;4.38;2.47;;;;;;;32.11;30.52;94033.50;5056938;28;20227;-72
2022/06/16 06:33:19;;;;;;;7.28;2.60;;;;;;;31.90;30.71;94035.13;5052367;28;20197;-72
2022/06/16 06:36:03;;;;;;;6.63;2.72;;;;;;;31.42;32.05;94033.97;5054501;28;20568;-71
2022/06/16 06:38:47;;;;;;;9.05;3.35;;;;;;;31.57;41.18;94044.03;5058781;28;20189;-65
2022/06/16 06:41:32;;;;;;;5.65;2.65;;;;;;;31.73;42.89;94043.94;5056740;28;20244;-65
2022/06/16 06:44:16;;;;;;;9.07;2.85;;;;;;;31.03;38.08;94050.06;5053019;28;20678;-65
2022/06/16 06:47:00;;;;;;;6.35;3.30;;;;;;;31.40;39.91;94048.47;5050179;28;20224;-65
2022/06/16 06:49:45;;;;;;;7.57;3.40;;;;;;;31.85;40.34;94048.22;5051741;28;20203;-66
2022/06/16 06:52:29;;;;;;;10.60;3.22;;;;;;;32.26;41.10;94060.94;5045665;28;20209;-67
2022/06/16 06:55:14;;;;;;;4.95;3.00;;;;;;;32.49;38.23;94053.47;5050432;28;20201;-68
2022/06/16 06:57:58;;;;;;;10.57;3.33;;;;;;;32.30;37.23;94048.59;5053529;28;20325;-68
2022/06/16 07:00:42;;;;;;;7.38;2.88;;;;;;;32.25;37.51;94047.91;5052574;28;20206;-68
2022/06/16 07:03:28;;;;;;;9.55;2.88;;;;;;;32.94;36.36;94047.22;5052866;28;20267;-69
2022/06/16 07:06:12;;;;;;;8.10;2.88;;;;;;;32.42;38.21;94040.50;5056277;28;20197;-68
2022/06/16 07:08:57;;;;;;;10.75;3.17;;;;;;;32.97;36.63;94036.28;5051972;28;20229;-68
2022/06/16 07:11:41;;;;;;;6.10;2.83;;;;;;;33.15;36.33;94054.22;5056458;28;20201;-68
2022/06/16 07:14:26;;;;;;;6.75;2.72;;;;;;;32.40;35.31;94052.13;5053379;28;20210;-67
2022/06/16 07:17:11;;;;;;;9.27;2.80;;;;;;;32.45;34.25;94059.31;5051410;28;20210;-67
2022/06/16 07:19:56;;;;;;;15.52;2.83;;;;;;;33.28;33.50;94070.06;5053437;28;20197;-67
2022/06/16 07:22:39;;;;;;;6.80;2.80;;;;;;;33.25;32.10;94065.75;5052303;28;20198;-67
2022/06/16 07:25:23;;;;;;;7.72;2.25;;;;;;;33.93;32.75;94065.56;5054124;28;20268;-68
2022/06/16 07:28:07;;;;;;;11.90;3.00;;;;;;;34.07;31.13;94057.31;5057556;28;20229;-67
2022/06/16 07:30:52;;;;;;;7.78;3.03;;;;;;;33.78;31.64;94056.34;5053746;28;20201;-67
2022/06/16 07:33:35;;;;;;;10.45;3.03;;;;;;;34.44;30.00;94056.78;5055682;28;20229;-67
2022/06/16 07:36:19;;;;;;;7.32;2.95;;;;;;;34.45;31.25;94052.38;5053709;28;20249;-67
2022/06/16 07:39:05;;;;;;;6.75;2.80;;;;;;;34.26;30.87;94054.16;5057718;28;20274;-67
2022/06/16 07:41:49;;;;;;;8.40;3.22;;;;;;;34.98;29.73;94051.44;5051927;28;20573;-65
2022/06/16 07:44:33;;;;;;;8.98;2.92;;;;;;;34.67;29.46;94049.06;5056917;28;20193;-65
2022/06/16 07:47:17;;;;;;;8.75;2.65;;;;;;;35.80;28.84;94045.38;5055616;28;20197;-65
2022/06/16 07:50:03;;;;;;;5.88;2.92;;;;;;;36.38;26.08;94043.97;5052039;28;20630;-65
2022/06/16 07:52:47;;;;;;;10.82;2.75;;;;;;;35.55;28.15;94054.63;5059556;28;20251;-65
2022/06/16 07:55:31;;;;;;;7.22;2.80;;;;;;;36.47;26.13;94059.81;5061089;28;20197;-66
2022/06/16 07:58:15;;;;;;;7.05;2.92;;;;;;;36.67;26.22;94069.56;5053474;28;20303;-66
2022/06/16 08:01:00;;;;;;;6.97;2.53;;;;;;;35.97;28.06;94063.94;5057816;28;20208;-66
2022/06/16 08:03:44;;;;;;;7.93;2.70;;;;;;;35.56;27.81;94070.63;5048353;28;20741;-67
2022/06/16 08:06:28;;;;;;;8.50;3.50;;;;;;;36.68;26.41;94071.00;5053564;28;20212;-68
2022/06/16 08:09:13;;;;;;;8.88;2.70;;;;;;;37.09;25.66;94083.03;5059557;28;20218;-67
2022/06/16 08:12:03;;;;;;;5.93;2.97;;;;;;;35.03;29.39;94081.91;5055388;28;20732;-66
2022/06/16 08:14:48;;;;;;;6.90;2.97;;;;;;;34.46;29.66;94085.81;5051452;28;20740;-66
2022/06/16 08:17:36;;;;;;;8.15;3.22;;;;;;;34.54;29.56;94088.59;5066144;28;20251;-68
2022/06/16 08:20:20;;;;;;;6.97;3.08;;;;;;;35.76;28.19;94098.66;5047753;28;20230;-68
2022/06/16 08:23:05;;;;;;;6.13;2.70;;;;;;;35.85;28.25;94105.06;5054880;28;20573;-69
2022/06/16 08:25:50;;;;;;;5.15;2.50;;;;;;;35.63;27.53;94121.50;5055634;28;20205;-69
2022/06/16 08:28:34;;;;;;;8.18;3.05;;;;;;;34.41;29.77;94110.66;5052294;28;20275;-68
2022/06/16 08:31:21;;;;;;;9.95;2.88;;;;;;;34.89;29.73;94112.75;5061817;28;20663;-69
2022/06/16 08:34:06;;;;;;;8.18;2.30;;;;;;;36.84;26.25;94117.31;5055512;28;20244;-69
2022/06/16 08:36:50;;;;;;;15.10;2.33;;;;;;;35.66;27.81;94105.41;5060436;28;20196;-66
2022/06/16 08:39:35;;;;;;;6.32;1.83;;;;;;;34.13;29.11;94116.91;5053887;28;20300;-67
2022/06/16 08:42:41;;;;;;;4.35;1.85;;;;;;;34.36;27.80;94120.91;5062024;28;20280;-67
2022/06/16 08:45:45;;;;;;;4.03;1.77;;;;;;;34.93;27.38;94119.97;5050349;28;20360;-66
2022/06/16 08:49:03;;;;;;;4.57;1.67;;;;;;;34.48;27.66;94126.53;5048884;28;20229;-67
2022/06/16 08:52:28;;;;;;;4.70;1.88;;;;;;;35.57;26.61;94142.03;5058156;28;20344;-67
2022/06/16 08:55:28;;;;;;;4.38;2.03;;;;;;;36.18;25.18;94129.09;5056798;28;20197;-69
2022/06/16 08:58:40;;;;;;;3.47;1.65;;;;;;;36.03;25.56;94142.56;5053859;28;20682;-69
2022/06/16 09:01:38;;;;;;;4.50;1.90;;;;;;;35.34;26.20;94143.97;5057694;28;20248;-69
2022/06/16 09:04:31;;;;;;;5.85;1.50;;;;;;;35.86;25.46;94153.16;5054869;28;20774;-70
2022/06/16 09:07:40;;;;;;;3.20;1.60;;;;;;;35.85;26.34;94148.81;5052829;28;20201;-69
2022/06/16 09:10:43;;;;;;;2.72;1.50;;;;;;;35.46;26.57;94152.47;5044439;28;20205;-70
2022/06/16 09:13:54;;;;;;;8.60;1.67;;;;;;;36.30;25.77;94158.00;5064014;28;20213;-69
2022/06/16 09:16:57;;;;;;;4.00;1.63;;;;;;;36.99;25.43;94156.34;5053983;28;20209;-69
2022/06/16 09:19:57;;;;;;;3.78;1.60;;;;;;;37.46;24.64;94158.06;5056187;28;20749;-70
2022/06/16 09:23:06;;;;;;;5.13;1.60;;;;;;;37.45;25.36;94150.78;5058444;28;20230;-68
2022/06/16 09:25:54;;;;;;;2.35;1.48;;;;;;;38.13;24.44;94159.09;5064113;28;20208;-68
2022/06/16 09:29:01;;;;;;;4.00;1.77;;;;;;;37.13;25.36;94158.94;5047108;28;20252;-68
2022/06/16 09:31:58;;;;;;;3.28;1.83;;;;;;;37.31;25.99;94160.66;5056358;28;20193;-67
2022/06/16 09:35:03;;;;;;;5.82;3.28;;;;;;;38.38;24.56;94165.63;5047577;28;20197;-70
2022/06/16 09:38:08;;;;;;;6.38;2.95;;;;;;;36.72;27.52;94164.34;5062091;28;20196;-68
2022/06/16 09:42:32;;;;;;;4.28;1.90;;;;;;;38.24;25.68;94157.28;5057782;28;20197;-69
2022/06/16 09:44:22;;;;;;;10.07;2.50;;;;;;;37.42;26.64;94152.31;5044014;28;20234;-70
2022/06/16 09:47:11;;;;;;;6.53;2.83;;;;;;;37.46;26.90;94150.00;5054965;28;20246;-69
2022/06/16 09:50:07;;;;;;;10.27;2.45;;;;;;;38.39;26.31;94161.22;5053031;28;20212;-70
2022/06/16 09:52:54;;;;;;;9.50;2.50;;;;;;;39.49;25.18;94164.91;5051140;28;20324;-69
2022/06/16 09:55:45;;;;;;;6.38;2.33;;;;;;;38.16;27.38;94163.38;5046580;28;20332;-70
2022/06/16 09:58:47;;;;;;;7.28;3.45;;;;;;;37.83;26.16;94157.78;5055039;28;20682;-69
2022/06/16 10:01:40;;;;;;;6.95;2.67;;;;;;;38.14;26.29;94172.25;5057614;28;20228;-71
2022/06/16 10:04:25;;;;;;;11.98;3.00;;;;;;;37.64;27.50;94172.19;5062145;28;20271;-73
2022/06/16 10:07:28;;;;;;;7.35;3.17;;;;;;;37.08;27.55;94169.28;5051905;28;20197;-73
2022/06/16 10:10:24;;;;;;;8.80;2.78;;;;;;;35.75;29.49;94172.31;5044983;28;20299;-71
2022/06/16 10:13:27;;;;;;;7.07;2.88;;;;;;;36.53;28.15;94169.19;5055092;28;20197;-69
2022/06/16 10:16:23;;;;;;;9.85;3.28;;;;;;;38.05;26.29;94184.19;5054993;28;20246;-71
2022/06/16 10:19:07;;;;;;;8.40;2.63;;;;;;;38.67;24.78;94192.56;5058230;28;20868;-70
2022/06/16 10:21:51;;;;;;;7.43;2.92;;;;;;;37.47;26.35;94183.59;5054366;28;20717;-69
2022/06/16 10:24:41;;;;;;;4.97;2.75;;;;;;;38.13;25.91;94189.09;5059202;28;20200;-69
2022/06/16 10:27:49;;;;;;;7.05;3.13;;;;;;;39.29;25.19;94189.06;5059686;28;20206;-68
2022/06/16 10:30:38;;;;;;;12.40;3.15;;;;;;;39.29;25.51;94189.06;5056003;28;20722;-69
2022/06/16 10:33:25;;;;;;;5.43;2.80;;;;;;;39.19;25.13;94187.16;5057174;28;20569;-69
2022/06/16 10:36:23;;;;;;;7.35;2.55;;;;;;;39.95;24.09;94183.06;5053656;28;20678;-68
2022/06/16 10:39:16;;;;;;;8.05;2.90;;;;;;;40.28;24.40;94193.59;5061020;28;20239;-69
2022/06/16 10:42:00;;;;;;;3.80;2.20;;;;;;;39.83;24.65;94201.13;5050407;28;20284;-69
2022/06/16 10:44:54;;;;;;;7.68;2.88;;;;;;;38.80;25.29;94196.53;5055104;28;20674;-71
2022/06/16 10:47:47;;;;;;;7.95;3.35;;;;;;;39.21;25.91;94189.31;5047251;28;20256;-70
2022/06/16 10:50:37;;;;;;;7.20;3.22;;;;;;;39.42;25.47;94195.97;5049682;28;20711;-70
2022/06/16 10:53:30;;;;;;;9.15;2.90;;;;;;;39.17;25.63;94183.63;5056933;28;20316;-70
2022/06/16 10:56:23;;;;;;;6.82;2.90;;;;;;;37.81;27.88;94184.88;5053846;28;20245;-70
2022/06/16 10:59:27;;;;;;;8.00;3.22;;;;;;;39.41;26.41;94182.78;5059716;28;20192;-71
2022/06/16 11:02:25;;;;;;;5.55;2.72;;;;;;;38.12;27.14;94181.78;5052612;28;20579;-69
2022/06/16 11:05:13;;;;;;;6.25;2.85;;;;;;;37.15;29.15;94179.34;5053478;28;20681;-72
2022/06/16 11:08:10;;;;;;;5.32;2.70;;;;;;;37.71;27.31;94182.25;5060720;28;20261;-71
2022/06/16 11:10:57;;;;;;;9.10;3.05;;;;;;;38.66;26.31;94182.31;5052451;28;20217;-72
2022/06/16 11:13:56;;;;;;;7.57;2.67;;;;;;;37.87;26.50;94181.75;5053954;28;20282;-72
2022/06/16 11:16:48;;;;;;;7.15;3.17;;;;;;;38.75;25.64;94183.50;5061840;28;20273;-70
2022/06/16 11:19:58;;;;;;;10.15;3.03;;;;;;;37.29;25.72;94187.00;5057318;28;20251;-70
2022/06/16 11:22:45;;;;;;;6.95;2.75;;;;;;;37.30;24.92;94170.91;5061463;28;20194;-71
2022/06/16 11:25:34;;;;;;;7.75;2.88;;;;;;;36.29;25.95;94162.44;5052997;28;20282;-72
2022/06/16 11:28:21;;;;;;;7.45;2.65;;;;;;;35.52;27.69;94152.34;5059970;28;20249;-73
2022/06/16 11:31:06;;;;;;;7.43;2.85;;;;;;;37.61;25.44;94162.03;5051885;28;20278;-72
2022/06/16 11:34:14;;;;;;;8.98;3.15;;;;;;;36.85;27.33;94159.63;5060582;28;20198;-72
2022/06/16 11:37:13;;;;;;;5.30;2.80;;;;;;;38.04;23.97;94158.63;5052479;28;20224;-72
2022/06/16 11:40:10;;;;;;;4.97;2.90;;;;;;;41.55;21.24;94167.13;5059097;28;20252;-73
2022/06/16 11:43:14;;;;;;;8.10;2.53;;;;;;;41.11;20.67;94169.72;5049459;28;20194;-73
2022/06/16 11:46:24;;;;;;;4.03;2.67;;;;;;;42.32;19.53;94166.63;5060724;28;20280;-73
2022/06/16 11:49:13;;;;;;;9.00;3.20;;;;;;;41.28;21.01;94166.81;5059551;28;20704;-73
2022/06/16 11:52:12;;;;;;;7.32;2.70;;;;;;;43.00;19.40;94170.75;5050948;28;20697;-73
2022/06/16 11:55:08;;;;;;;9.35;3.08;;;;;;;42.19;19.54;94175.28;5060821;28;20197;-73
2022/06/16 11:58:11;;;;;;;5.40;2.78;;;;;;;42.01;19.72;94166.59;5051415;28;20321;-73
2022/06/16 12:01:12;;;;;;;7.82;3.20;;;;;;;42.58;19.19;94171.28;5052124;28;20206;-73
2022/06/16 12:04:44;;;;;;;8.98;2.85;;;;;;;41.28;20.82;94146.25;5052335;28;20267;-71
2022/06/16 12:07:28;;;;;;;7.13;2.97;;;;;;;40.63;21.72;94166.50;5044631;28;20201;-71
2022/06/16 12:10:24;;;;;;;6.75;3.17;;;;;;;38.95;23.16;94179.19;5051605;28;20237;-71
2022/06/16 12:13:23;;;;;;;11.55;2.95;;;;;;;36.20;26.94;94184.50;5058166;28;20683;-72
2022/06/16 12:16:39;;;;;;;6.65;3.25;;;;;;;36.86;25.01;94187.34;5060538;28;20220;-72
2022/06/16 12:19:54;;;;;;;8.30;3.10;;;;;;;36.71;25.40;94197.97;5061010;28;20324;-72
2022/06/16 12:22:54;;;;;;;9.40;2.63;;;;;;;35.92;28.13;94223.03;5051097;28;20197;-72
2022/06/16 12:25:50;;;;;;;10.60;3.28;;;;;;;36.98;27.02;94201.66;5064390;28;20197;-73
2022/06/16 12:29:05;;;;;;;7.75;2.95;;;;;;;37.64;26.05;94213.16;5048494;28;20698;-73
2022/06/16 12:31:57;;;;;;;8.63;2.90;;;;;;;37.76;25.84;94206.97;5054263;28;20686;-73
2022/06/16 12:35:10;;;;;;;6.95;3.38;;;;;;;37.35;25.77;94197.81;5047377;28;20256;-72
2022/06/16 12:38:18;;;;;;;4.97;2.90;;;;;;;36.79;26.79;94191.91;5050590;28;20496;-73
2022/06/16 12:41:09;;;;;;;9.48;3.40;;;;;;;36.96;26.68;94180.56;5056580;28;20233;-72
2022/06/16 12:44:03;;;;;;;6.38;3.30;;;;;;;37.95;25.62;94193.25;5053234;28;20228;-72
2022/06/16 12:46:51;;;;;;;8.63;4.63;;;;;;;36.91;27.08;94185.75;5075856;28;20217;-72
2022/06/16 12:49:47;;;;;;;8.68;3.28;;;;;;;37.75;26.36;94182.13;5052573;28;20245;-73
2022/06/16 12:52:39;;;;;;;6.88;3.08;;;;;;;37.52;26.62;94184.22;5040279;28;20679;-71
2022/06/16 12:55:35;;;;;;;11.88;3.72;;;;;;;38.22;26.31;94192.47;5057876;28;20229;-73
2022/06/16 12:58:28;;;;;;;8.27;3.28;;;;;;;38.21;26.02;94188.09;5057680;28;20281;-72
2022/06/16 13:01:12;;;;;;;8.38;3.35;;;;;;;39.89;24.74;94179.63;5049102;28;20240;-73
2022/06/16 13:04:13;;;;;;;6.85;2.95;;;;;;;42.55;21.55;94181.72;5046427;28;20426;-74
2022/06/16 13:07:00;;;;;;;8.35;3.15;;;;;;;43.68;20.32;94186.50;5055643;28;20272;-71
2022/06/16 13:09:45;;;;;;;6.45;3.35;;;;;;;42.24;22.09;94175.81;5052710;28;20217;-74
2022/06/16 13:12:35;;;;;;;6.40;3.17;;;;;;;41.40;22.57;94175.13;5053420;28;20197;-73
2022/06/16 13:15:26;;;;;;;11.68;3.25;;;;;;;40.08;24.49;94171.56;5054634;28;20727;-72
2022/06/16 13:18:21;;;;;;;5.72;3.25;;;;;;;38.53;26.46;94180.56;5055102;28;20197;-72
2022/06/16 13:21:06;;;;;;;7.00;3.05;;;;;;;39.37;24.88;94180.00;5059362;28;20217;-72
2022/06/16 13:24:02;;;;;;;8.95;3.38;;;;;;;39.82;24.69;94176.19;5052056;28;20677;-73
2022/06/16 13:27:06;;;;;;;8.88;3.40;;;;;;;43.91;19.95;94199.31;5048769;28;20201;-74
2022/06/16 13:29:50;;;;;;;5.25;2.95;;;;;;;44.24;20.81;94195.34;5040089;28;20910;-75
2022/06/16 13:32:47;;;;;;;5.53;3.03;;;;;;;45.46;17.60;94200.34;5055635;28;20307;-74
2022/06/16 13:35:31;;;;;;;9.27;3.10;;;;;;;43.83;20.06;94193.09;5054692;28;20614;-73
2022/06/16 13:38:15;;;;;;;7.55;2.80;;;;;;;44.31;18.59;94196.44;5056055;28;20220;-74
2022/06/16 13:41:37;;;;;;;8.27;3.17;;;;;;;41.48;21.77;94192.47;5057529;28;20210;-72